Hlavní strana
METAR-TAF:

METAR-TAF

Letiště :

Algeciras, Španělsko

zeměpisná šířka: 36-07-44N, zeměpisná délka: 05-26-28W, výška: 30 m

Aktuální stav počasí

Zpráva byla vytvořena před 45 minutami, v 04:00 UTC
Východní vítr 14 kt, proměnlivý mezi severovýchodním a východojihovýchodním
Teplota 15°C
Vlhkost vzduchu 82%
Tlak 1029 hPa
Viditelnost 10 km a více
Skoro jasno ve výšce 2700 ft

METAR: LEAG 220400Z AUTO 08014KT 050V110 9999 FEW027 15/12 Q1029

Čas: 05:45 (04:45 UTC)


TAF: chybějící

Stav a předpovědi počasí z více než 4 000 letišť (zprávy METAR a TAF).

Červené a žluté tečky na mapě představují dostupné meteorologické stanice.

Když kurzor umístíte na tečku, zobrazí se název stanice.

Pak kliknutím zobrazíte stav a předpověď počasí.

Chcete-li změnit mapu, kliknutím na zelené tlačítko se znaménkem +mapu přiblížíte, kliknutím na zelené tlačítko se znaménkem – mapu oddálíte a kliknutím na zelené šipky přejdete na sousední mapy.


METAR-TAF: